Time;durP1;ratioP1;P1;durP2;ratioP2;P2;SDS_P1;SDS_P2;PMS_P1;PMS_P2;Temp;Humidity;BMP_temperature;BMP_pressure;BME280_temperature;BME280_humidity;BME280_pressure;Samples;Min_cycle;Max_cycle;Signal;HPM_P1;HPM_P2
2021/06/22 00:00:40;;;;;;;;;;;;;;;;;;5072499;28;19947;-76
2021/06/22 00:03:05;;;;;;;;;;;;;;;;;;5073475;28;19919;-76
2021/06/22 00:05:35;;;;;;;;;;;;;;;;;;5073908;28;19916;-76
2021/06/22 00:08:00;;;;;;;;;;;;;;;;;;5072384;28;19952;-76
2021/06/22 00:10:26;;;;;;;;;;;;;;;;;;5055512;28;20375;-76
2021/06/22 00:12:51;;;;;;;;;;;;;;;;;;5088412;28;19912;-76
2021/06/22 00:15:17;;;;;;;;;;;;;;;;;;5085553;28;19924;-76
2021/06/22 00:17:42;;;;;;;;;;;;;;;;;;5089654;28;19912;-76
2021/06/22 00:20:08;;;;;;;;;;;;;;;;;;5092449;28;20390;-76
2021/06/22 00:22:33;;;;;;;;;;;;;;;;;;5079971;28;19924;-76
2021/06/22 00:24:58;;;;;;;;;;;;;;;;;;5073262;28;19920;-76
2021/06/22 00:27:24;;;;;;;;;;;;;;;;;;5073659;28;19917;-76
2021/06/22 00:29:51;;;;;;;;;;;;;;;;;;5093483;28;20390;-76
2021/06/22 00:32:16;;;;;;;;;;;;;;;;;;5092483;28;19916;-76
2021/06/22 00:34:42;;;;;;;;;;;;;;;;;;5079558;28;19917;-76
2021/06/22 00:37:07;;;;;;;;;;;;;;;;;;5073221;28;20436;-76
2021/06/22 00:39:32;;;;;;;;;;;;;;;;;;5072227;28;19963;-77
2021/06/22 00:41:58;;;;;;;;;;;;;;;;;;5071307;28;19916;-76
2021/06/22 00:44:23;;;;;;;;;;;;;;;;;;5060252;28;19962;-76
2021/06/22 00:46:48;;;;;;;;;;;;;;;;;;5051848;28;19916;-76
2021/06/22 00:49:13;;;;;;;;;;;;;;;;;;5068720;28;20379;-76
2021/06/22 00:51:38;;;;;;;;;;;;;;;;;;5072166;28;19919;-76
2021/06/22 00:54:04;;;;;;;;;;;;;;;;;;5087746;28;19916;-76
2021/06/22 00:56:30;;;;;;;;;;;;;;;;;;5093376;28;19919;-76
2021/06/22 00:58:55;;;;;;;;;;;;;;;;;;5092067;28;19982;-76
2021/06/22 01:01:20;;;;;;;;;;;;;;;;;;5073725;28;20007;-76
2021/06/22 01:03:45;;;;;;;;;;;;;;;;;;5075334;28;19928;-76
2021/06/22 01:06:11;;;;;;;;;;;;;;;;;;5080491;28;19968;-76
2021/06/22 01:08:36;;;;;;;;;;;;;;;;;;5071812;28;19919;-76
2021/06/22 01:11:01;;;;;;;;;;;;;;;;;;5054949;28;19912;-76
2021/06/22 01:13:26;;;;;;;;;;;;;;;;;;5054927;28;20009;-76
2021/06/22 01:15:52;;;;;;;;;;;;;;;;;;5084411;28;20305;-76
2021/06/22 01:18:17;;;;;;;;;;;;;;;;;;5081405;28;19921;-76
2021/06/22 01:20:42;;;;;;;;;;;;;;;;;;5071653;28;19923;-76
2021/06/22 01:23:08;;;;;;;;;;;;;;;;;;5076482;28;19913;-76
2021/06/22 01:25:33;;;;;;;;;;;;;;;;;;5056376;28;20273;-76
2021/06/22 01:27:58;;;;;;;;;;;;;;;;;;5069878;28;20332;-76
2021/06/22 01:30:27;;;;;;;;;;;;;;;;;;5089360;28;20359;-76
2021/06/22 01:32:52;;;;;;;;;;;;;;;;;;5075195;28;20011;-76
2021/06/22 01:35:18;;;;;;;;;;;;;;;;;;5095686;28;20003;-76
2021/06/22 01:37:50;;;;;;;;;;;;;;;;;;5078110;28;19916;-76
2021/06/22 01:40:15;;;;;;;;;;;;;;;;;;5096343;28;20371;-77
2021/06/22 01:42:40;;;;;;;;;;;;;;;;;;5094432;28;19912;-76
2021/06/22 01:45:06;;;;;;;;;;;;;;;;;;5075932;28;19967;-76
2021/06/22 01:47:31;;;;;;;;;;;;;;;;;;5064807;28;19927;-76
2021/06/22 01:49:57;;;;;;;;;;;;;;;;;;5094958;28;20321;-76
2021/06/22 01:52:22;;;;;;;;;;;;;;;;;;5095065;28;19912;-76
2021/06/22 01:54:47;;;;;;;;;;;;;;;;;;5092315;28;19927;-76
2021/06/22 01:57:13;;;;;;;;;;;;;;;;;;5075779;28;19913;-76
2021/06/22 01:59:39;;;;;;;;;;;;;;;;;;5074701;28;19913;-76
2021/06/22 02:02:04;;;;;;;;;;;;;;;;;;5071200;28;19923;-76
2021/06/22 02:04:29;;;;;;;;;;;;;;;;;;5082083;28;19923;-76
2021/06/22 02:06:54;;;;;;;;;;;;;;;;;;5094972;28;19920;-76
2021/06/22 02:09:19;;;;;;;;;;;;;;;;;;5084036;28;19925;-76
2021/06/22 02:11:44;;;;;;;;;;;;;;;;;;5075531;28;20011;-76
2021/06/22 02:14:10;;;;;;;;;;;;;;;;;;5067330;28;19923;-76
2021/06/22 02:16:35;;;;;;;;;;;;;;;;;;5077270;22;19924;-77
2021/06/22 02:19:00;;;;;;;;;;;;;;;;;;5068418;28;19925;-77
2021/06/22 02:21:25;;;;;;;;;;;;;;;;;;5064069;28;19916;-77
2021/06/22 02:23:51;;;;;;;;;;;;;;;;;;5067826;28;19918;-77
2021/06/22 02:26:16;;;;;;;;;;;;;;;;;;5066979;28;20003;-77
2021/06/22 02:28:41;;;;;;;;;;;;;;;;;;5066018;28;19916;-77
2021/06/22 02:31:06;;;;;;;;;;;;;;;;;;5066653;28;19922;-77
2021/06/22 02:33:31;;;;;;;;;;;;;;;;;;5074620;28;19912;-77
2021/06/22 02:35:57;;;;;;;;;;;;;;;;;;5093326;28;19912;-77
2021/06/22 02:38:22;;;;;;;;;;;;;;;;;;5056414;28;19920;-77
2021/06/22 02:40:47;;;;;;;;;;;;;;;;;;5040458;28;19923;-76
2021/06/22 02:43:13;;;;;;;;;;;;;;;;;;5056806;28;20364;-76
2021/06/22 02:45:39;;;;;;;;;;;;;;;;;;5056902;28;19946;-76
2021/06/22 02:48:04;;;;;;;;;;;;;;;;;;5056626;28;20438;-76
2021/06/22 02:50:30;;;;;;;;;;;;;;;;;;5056815;28;19923;-77
2021/06/22 02:52:55;;;;;;;;;;;;;;;;;;5056515;28;19970;-76
2021/06/22 02:55:20;;;;;;;;;;;;;;;;;;5074344;28;19920;-77
2021/06/22 02:57:46;;;;;;;;;;;;;;;;;;5056534;28;19916;-76
2021/06/22 03:00:11;;;;;;;;;;;;;;;;;;5074782;28;19916;-76
2021/06/22 03:02:36;;;;;;;;;;;;;;;;;;5074528;28;19994;-76
2021/06/22 03:05:02;;;;;;;;;;;;;;;;;;5056512;28;20365;-77
2021/06/22 03:07:27;;;;;;;;;;;;;;;;;;5074353;28;19927;-77
2021/06/22 03:09:52;;;;;;;;;;;;;;;;;;5056460;28;19954;-76
2021/06/22 03:12:17;;;;;;;;;;;;;;;;;;5056391;28;19920;-77
2021/06/22 03:14:42;;;;;;;;;;;;;;;;;;5074353;28;19918;-77
2021/06/22 03:17:08;;;;;;;;;;;;;;;;;;5055967;28;19958;-77
2021/06/22 03:19:33;;;;;;;;;;;;;;;;;;5056377;28;19938;-77
2021/06/22 03:21:58;;;;;;;;;;;;;;;;;;5082052;22;19925;-81
2021/06/22 03:24:23;;;;;;;;;;;;;;;;;;5036204;28;19917;-82
2021/06/22 03:26:48;;;;;;;;;;;;;;;;;;5037313;28;19962;-82
2021/06/22 03:29:14;;;;;;;;;;;;;;;;;;5056367;28;19917;-82
2021/06/22 03:31:40;;;;;;;;;;;;;;;;;;5050496;28;19913;-82
2021/06/22 03:34:05;;;;;;;;;;;;;;;;;;5026161;28;19916;-82
2021/06/22 03:36:30;;;;;;;;;;;;;;;;;;5038759;28;19921;-82
2021/06/22 03:38:55;;;;;;;;;;;;;;;;;;5055312;28;19944;-82
2021/06/22 03:41:21;;;;;;;;;;;;;;;;;;5054383;28;19913;-82
2021/06/22 03:43:46;;;;;;;;;;;;;;;;;;5035909;28;19925;-81
2021/06/22 03:46:11;;;;;;;;;;;;;;;;;;5054627;28;19920;-82
2021/06/22 03:48:36;;;;;;;;;;;;;;;;;;5018264;28;19921;-82
2021/06/22 03:51:02;;;;;;;;;;;;;;;;;;5015058;28;19976;-82
2021/06/22 03:53:27;;;;;;;;;;;;;;;;;;5024264;28;19923;-82
2021/06/22 03:55:52;;;;;;;;;;;;;;;;;;5054652;28;19912;-82
2021/06/22 03:58:18;;;;;;;;;;;;;;;;;;5037883;28;19918;-82
2021/06/22 04:00:43;;;;;;;;;;;;;;;;;;5018252;28;19913;-82
2021/06/22 04:03:13;;;;;;;;;;;;;;;;;;5035959;28;19923;-82
2021/06/22 04:05:38;;;;;;;;;;;;;;;;;;5034461;28;19920;-82
2021/06/22 04:08:04;;;;;;;;;;;;;;;;;;5034537;28;19913;-82
2021/06/22 04:10:29;;;;;;;;;;;;;;;;;;5030825;28;19964;-82
2021/06/22 04:12:54;;;;;;;;;;;;;;;;;;5025915;28;19917;-82
2021/06/22 04:15:20;;;;;;;;;;;;;;;;;;5034965;28;19939;-78
2021/06/22 04:17:45;;;;;;;;;;;;;;;;;;5052056;28;20387;-79
2021/06/22 04:20:10;;;;;;;;;;;;;;;;;;5033415;28;20376;-80
2021/06/22 04:22:35;;;;;;;;;;;;;;;;;;5033960;28;19917;-80
2021/06/22 04:25:01;;;;;;;;;;;;;;;;;;5052892;28;20315;-80
2021/06/22 04:27:26;;;;;;;;;;;;;;;;;;5027008;28;20399;-80
2021/06/22 04:29:51;;;;;;;;;;;;;;;;;;5047293;28;19923;-80
2021/06/22 04:32:16;;;;;;;;;;;;;;;;;;5038161;28;19917;-80
2021/06/22 04:34:41;;;;;;;;;;;;;;;;;;5037904;28;19924;-80
2021/06/22 04:37:07;;;;;;;;;;;;;;;;;;5038765;28;19917;-80
2021/06/22 04:39:32;;;;;;;;;;;;;;;;;;5054188;28;19913;-80
2021/06/22 04:41:57;;;;;;;;;;;;;;;;;;5037089;28;19917;-80
2021/06/22 04:44:22;;;;;;;;;;;;;;;;;;5040056;28;19947;-80
2021/06/22 04:46:47;;;;;;;;;;;;;;;;;;5020541;28;20372;-80
2021/06/22 04:49:13;;;;;;;;;;;;;;;;;;5037386;28;19913;-80
2021/06/22 04:51:38;;;;;;;;;;;;;;;;;;5053316;28;19961;-79
2021/06/22 04:54:03;;;;;;;;;;;;;;;;;;5034409;28;19980;-80
2021/06/22 04:56:28;;;;;;;;;;;;;;;;;;5034906;28;20269;-79
2021/06/22 04:58:54;;;;;;;;;;;;;;;;;;5049514;28;19916;-80
2021/06/22 05:01:19;;;;;;;;;;;;;;;;;;5031280;28;20039;-80
2021/06/22 05:03:44;;;;;;;;;;;;;;;;;;5037147;28;20406;-80
2021/06/22 05:06:11;;;;;;;;;;;;;;;;;;5037372;28;19920;-80
2021/06/22 05:08:36;;;;;;;;;;;;;;;;;;5037706;28;19917;-80
2021/06/22 05:11:01;;;;;;;;;;;;;;;;;;5057336;28;19924;-80
2021/06/22 05:13:27;;;;;;;;;;;;;;;;;;5047950;28;19917;-80
2021/06/22 05:15:52;;;;;;;;;;;;;;;;;;5050342;28;19917;-80
2021/06/22 05:18:17;;;;;;;;;;;;;;;;;;5042683;28;19923;-80
2021/06/22 05:20:42;;;;;;;;;;;;;;;;;;5037314;28;19921;-80
2021/06/22 05:23:07;;;;;;;;;;;;;;;;;;5016970;28;19917;-81
2021/06/22 05:25:33;;;;;;;;;;;;;;;;;;5034213;28;19960;-80
2021/06/22 05:27:58;;;;;;;;;;;;;;;;;;5036207;28;20040;-79
2021/06/22 05:30:23;;;;;;;;;;;;;;;;;;5020645;28;19935;-79
2021/06/22 05:32:48;;;;;;;;;;;;;;;;;;5038370;28;20360;-80
2021/06/22 05:35:14;;;;;;;;;;;;;;;;;;5037688;28;19913;-79
2021/06/22 05:37:39;;;;;;;;;;;;;;;;;;5022157;28;20383;-79
2021/06/22 05:40:05;;;;;;;;;;;;;;;;;;5020668;28;19913;-79
2021/06/22 05:42:30;;;;;;;;;;;;;;;;;;5019718;28;19917;-79
2021/06/22 05:44:56;;;;;;;;;;;;;;;;;;5019878;28;20301;-80
2021/06/22 05:47:21;;;;;;;;;;;;;;;;;;5020048;28;19913;-79
2021/06/22 05:49:46;;;;;;;;;;;;;;;;;;5020246;28;20388;-79
2021/06/22 05:52:11;;;;;;;;;;;;;;;;;;5019443;28;19957;-79
2021/06/22 05:54:37;;;;;;;;;;;;;;;;;;5020161;28;20380;-80
2021/06/22 05:57:02;;;;;;;;;;;;;;;;;;5018473;28;20381;-79
2021/06/22 05:59:28;;;;;;;;;;;;;;;;;;5001603;28;19914;-79
2021/06/22 06:01:53;;;;;;;;;;;;;;;;;;5019804;28;19920;-79
2021/06/22 06:04:18;;;;;;;;;;;;;;;;;;5002051;28;19918;-79
2021/06/22 06:06:43;;;;;;;;;;;;;;;;;;5017998;28;19917;-79
2021/06/22 06:09:08;;;;;;;;;;;;;;;;;;5001797;28;19937;-79
2021/06/22 06:11:34;;;;;;;;;;;;;;;;;;5018660;28;19914;-79
2021/06/22 06:13:59;;;;;;;;;;;;;;;;;;5017979;28;19914;-79
2021/06/22 06:16:24;;;;;;;;;;;;;;;;;;5035310;28;19921;-78
2021/06/22 06:18:49;;;;;;;;;;;;;;;;;;5021946;28;20393;-79
2021/06/22 06:21:14;;;;;;;;;;;;;;;;;;5021979;28;19920;-80
2021/06/22 06:23:41;;;;;;;;;;;;;;;;;;5039235;28;19917;-79
2021/06/22 06:26:08;;;;;;;;;;;;;;;;;;5037192;28;19932;-79
2021/06/22 06:28:40;;;;;;;;;;;;;;;;;;5037323;28;19920;-78
2021/06/22 06:31:06;;;;;;;;;;;;;;;;;;5021338;28;19913;-79
2021/06/22 06:33:31;;;;;;;;;;;;;;;;;;5036041;28;19919;-79
2021/06/22 06:35:56;;;;;;;;;;;;;;;;;;5019652;28;19924;-78
2021/06/22 06:38:21;;;;;;;;;;;;;;;;;;5035954;28;19913;-79
2021/06/22 06:40:46;;;;;;;;;;;;;;;;;;5019840;28;19921;-79
2021/06/22 06:43:12;;;;;;;;;;;;;;;;;;5035792;28;19957;-79
2021/06/22 06:45:37;;;;;;;;;;;;;;;;;;5036182;28;19913;-79
2021/06/22 06:48:02;;;;;;;;;;;;;;;;;;5019387;28;20368;-79
2021/06/22 06:50:27;;;;;;;;;;;;;;;;;;5037004;28;19924;-79
2021/06/22 06:52:53;;;;;;;;;;;;;;;;;;5036025;28;19960;-79
2021/06/22 06:55:28;;;;;;;;;;;;;;;;;;5019444;28;19953;-79
2021/06/22 06:57:57;;;;;;;;;;;;;;;;;;5020392;28;19921;-79
2021/06/22 07:00:22;;;;;;;;;;;;;;;;;;5018770;28;20372;-79
2021/06/22 07:02:47;;;;;;;;;;;;;;;;;;5035736;28;20047;-79
2021/06/22 07:05:13;;;;;;;;;;;;;;;;;;5035637;28;19917;-79
2021/06/22 07:07:38;;;;;;;;;;;;;;;;;;5035559;28;20394;-79
2021/06/22 07:10:03;;;;;;;;;;;;;;;;;;5018593;28;19917;-79
2021/06/22 07:12:28;;;;;;;;;;;;;;;;;;5035401;28;19960;-79
2021/06/22 07:14:54;;;;;;;;;;;;;;;;;;5035403;28;19919;-79
2021/06/22 07:17:19;;;;;;;;;;;;;;;;;;5036785;28;19921;-79
2021/06/22 07:19:44;;;;;;;;;;;;;;;;;;5034951;28;19913;-80
2021/06/22 07:22:09;;;;;;;;;;;;;;;;;;5018172;28;20398;-79
2021/06/22 07:24:34;;;;;;;;;;;;;;;;;;5034854;28;20008;-80
2021/06/22 07:26:59;;;;;;;;;;;;;;;;;;5018179;28;19913;-80
2021/06/22 07:29:25;;;;;;;;;;;;;;;;;;5034733;28;19913;-79
2021/06/22 07:31:50;;;;;;;;;;;;;;;;;;5019297;28;20414;-80
2021/06/22 07:34:15;;;;;;;;;;;;;;;;;;5021769;28;20265;-81
2021/06/22 07:36:40;;;;;;;;;;;;;;;;;;5021264;28;19919;-80
2021/06/22 07:39:05;;;;;;;;;;;;;;;;;;5021463;28;20334;-80
2021/06/22 07:41:31;;;;;;;;;;;;;;;;;;5022881;28;19914;-80
2021/06/22 07:43:56;;;;;;;;;;;;;;;;;;5023527;28;19948;-80
2021/06/22 07:46:21;;;;;;;;;;;;;;;;;;5022632;28;20004;-80
2021/06/22 07:48:46;;;;;;;;;;;;;;;;;;5040223;28;19917;-80
2021/06/22 07:51:11;;;;;;;;;;;;;;;;;;5038883;28;19919;-80
2021/06/22 07:53:37;;;;;;;;;;;;;;;;;;5022582;28;19921;-80
2021/06/22 07:56:02;;;;;;;;;;;;;;;;;;5039164;28;19920;-80
2021/06/22 07:58:27;;;;;;;;;;;;;;;;;;5039610;28;19980;-80
2021/06/22 08:00:54;;;;;;;;;;;;;;;;;;5039190;28;19913;-80
2021/06/22 08:03:19;;;;;;;;;;;;;;;;;;5038359;28;19920;-80
2021/06/22 08:05:46;;;;;;;;;;;;;;;;;;5038387;28;19913;-80
2021/06/22 08:08:12;;;;;;;;;;;;;;;;;;5022853;28;19913;-80
2021/06/22 08:10:38;;;;;;;;;;;;;;;;;;5038669;28;19920;-80
2021/06/22 08:13:04;;;;;;;;;;;;;;;;;;5038457;28;19913;-80
2021/06/22 08:15:29;;;;;;;;;;;;;;;;;;5038817;28;19913;-80
2021/06/22 08:17:54;;;;;;;;;;;;;;;;;;5022000;28;19913;-80
2021/06/22 08:20:19;;;;;;;;;;;;;;;;;;5039664;28;19941;-80
2021/06/22 08:22:51;;;;;;;;;;;;;;;;;;5022541;28;19917;-80
2021/06/22 08:25:16;;;;;;;;;;;;;;;;;;5040067;28;19921;-80
2021/06/22 08:27:41;;;;;;;;;;;;;;;;;;5039837;28;19920;-80
2021/06/22 08:30:07;;;;;;;;;;;;;;;;;;5038183;28;19916;-80
2021/06/22 08:32:32;;;;;;;;;;;;;;;;;;5024792;28;20380;-80
2021/06/22 08:34:57;;;;;;;;;;;;;;;;;;5042547;28;19924;-80
2021/06/22 08:37:23;;;;;;;;;;;;;;;;;;5043298;28;19913;-80
2021/06/22 08:39:49;;;;;;;;;;;;;;;;;;5043211;28;19913;-80
2021/06/22 08:42:14;;;;;;;;;;;;;;;;;;5043975;28;19917;-80
2021/06/22 08:44:39;;;;;;;;;;;;;;;;;;5026091;28;19918;-80
2021/06/22 08:47:04;;;;;;;;;;;;;;;;;;5025881;28;20368;-80
2021/06/22 08:49:31;;;;;;;;;;;;;;;;;;5027529;28;19943;-80
2021/06/22 08:51:56;;;;;;;;;;;;;;;;;;5027741;28;19944;-80
2021/06/22 08:54:21;;;;;;;;;;;;;;;;;;5028199;28;19913;-80
2021/06/22 08:56:46;;;;;;;;;;;;;;;;;;5030730;28;20376;-80
2021/06/22 08:59:12;;;;;;;;;;;;;;;;;;5049307;28;19917;-80
2021/06/22 09:01:37;;;;;;;;;;;;;;;;;;5032898;28;20303;-80
2021/06/22 09:04:02;;;;;;;;;;;;;;;;;;5036250;28;19921;-80
2021/06/22 09:06:28;;;;;;;;;;;;;;;;;;5043407;28;20588;-80
2021/06/22 09:08:54;;;;;;;;;;;;;;;;;;5026253;28;19913;-80
2021/06/22 09:11:19;;;;;;;;;;;;;;;;;;5043385;28;19917;-80
2021/06/22 09:13:57;;;;;;;;;;;;;;;;;;5046210;28;19919;-80
2021/06/22 09:16:22;;;;;;;;;;;;;;;;;;5060547;28;19935;-79
2021/06/22 09:18:48;;;;;;;;;;;;;;;;;;5044896;28;19953;-80
2021/06/22 09:21:14;;;;;;;;;;;;;;;;;;5045552;28;20001;-80
2021/06/22 09:23:40;;;;;;;;;;;;;;;;;;5015965;28;20281;-79
2021/06/22 09:26:13;;;;;;;;;;;;;;;;;;5053729;22;19956;-76
2021/06/22 09:28:38;;;;;;;;;;;;;;;;;;5016479;28;19928;-76
2021/06/22 09:31:04;;;;;;;;;;;;;;;;;;5001090;28;19918;-76
2021/06/22 09:33:32;;;;;;;;;;;;;;;;;;4998803;28;20368;-76
2021/06/22 09:35:57;;;;;;;;;;;;;;;;;;5016284;28;19948;-76
2021/06/22 09:38:22;;;;;;;;;;;;;;;;;;5015899;28;19953;-76
2021/06/22 09:40:51;;;;;;;;;;;;;;;;;;4998621;28;20380;-76
2021/06/22 09:43:16;;;;;;;;;;;;;;;;;;4998129;28;19992;-76
2021/06/22 09:45:47;;;;;;;;;;;;;;;;;;5016464;28;20372;-76
2021/06/22 09:48:12;;;;;;;;;;;;;;;;;;4982358;28;20012;-76
2021/06/22 09:50:39;;;;;;;;;;;;;;;;;;4998394;28;19969;-76
2021/06/22 09:53:22;;;;;;;;;;;;;;;;;;4998445;28;19918;-76
2021/06/22 09:55:48;;;;;;;;;;;;;;;;;;5015672;28;19917;-76
2021/06/22 09:58:13;;;;;;;;;;;;;;;;;;4977705;28;20004;-76
2021/06/22 10:00:38;;;;;;;;;;;;;;;;;;4998171;28;20016;-76
2021/06/22 10:03:04;;;;;;;;;;;;;;;;;;4990917;28;19918;-76
2021/06/22 10:05:29;;;;;;;;;;;;;;;;;;4995837;28;20012;-76
2021/06/22 10:07:58;;;;;;;;;;;;;;;;;;4998166;28;20414;-76
2021/06/22 10:10:34;;;;;;;;;;;;;;;;;;4981662;28;19917;-76
2021/06/22 10:12:59;;;;;;;;;;;;;;;;;;4997796;28;19968;-76
2021/06/22 10:15:24;;;;;;;;;;;;;;;;;;4998384;28;19928;-76
2021/06/22 10:17:49;;;;;;;;;;;;;;;;;;4997522;28;20004;-76
2021/06/22 10:20:14;;;;;;;;;;;;;;;;;;4996265;28;19990;-76
2021/06/22 10:22:41;;;;;;;;;;;;;;;;;;4978681;28;19914;-76
2021/06/22 10:25:08;;;;;;;;;;;;;;;;;;4995822;28;20400;-76
2021/06/22 10:27:33;;;;;;;;;;;;;;;;;;5000898;28;20290;-76
2021/06/22 10:30:00;;;;;;;;;;;;;;;;;;5015540;28;19918;-76
2021/06/22 10:32:26;;;;;;;;;;;;;;;;;;4997752;28;19917;-76
2021/06/22 10:34:52;;;;;;;;;;;;;;;;;;4998140;28;19948;-76
2021/06/22 10:37:21;;;;;;;;;;;;;;;;;;4997521;28;20007;-76
2021/06/22 10:39:50;;;;;;;;;;;;;;;;;;4997440;28;19924;-76
2021/06/22 10:42:15;;;;;;;;;;;;;;;;;;4997915;28;20303;-76
2021/06/22 10:44:42;;;;;;;;;;;;;;;;;;4981168;28;19925;-76
2021/06/22 10:47:17;;;;;;;;;;;;;;;;;;4980872;28;20337;-76
2021/06/22 10:49:58;;;;;;;;;;;;;;;;;;5014773;28;20376;-76
2021/06/22 10:52:42;;;;;;;;;;;;;;;;;;4997769;28;19917;-76
2021/06/22 10:55:07;;;;;;;;;;;;;;;;;;5013963;28;20284;-76
2021/06/22 10:57:51;;;;;;;;;;;;;;;;;;4997493;28;19917;-76
2021/06/22 11:00:17;;;;;;;;;;;;;;;;;;5014138;28;20400;-76
2021/06/22 11:03:01;;;;;;;;;;;;;;;;;;4997887;28;19923;-76
2021/06/22 11:05:26;;;;;;;;;;;;;;;;;;4997159;28;19922;-76
2021/06/22 11:08:12;;;;;;;;;;;;;;;;;;4997031;28;19944;-76
2021/06/22 11:10:38;;;;;;;;;;;;;;;;;;5007354;28;19913;-76
2021/06/22 11:13:04;;;;;;;;;;;;;;;;;;4997077;28;20388;-76
2021/06/22 11:15:41;;;;;;;;;;;;;;;;;;4996747;28;19917;-76
2021/06/22 11:18:09;;;;;;;;;;;;;;;;;;5014644;28;20016;-76
2021/06/22 11:20:35;;;;;;;;;;;;;;;;;;4996998;28;20052;-76
2021/06/22 11:23:03;;;;;;;;;;;;;;;;;;4997069;28;19952;-76
2021/06/22 11:25:44;;;;;;;;;;;;;;;;;;5014324;28;19922;-77
2021/06/22 11:28:09;;;;;;;;;;;;;;;;;;4980723;28;19923;-76
2021/06/22 11:30:51;;;;;;;;;;;;;;;;;;4997055;28;19914;-76
2021/06/22 11:33:29;;;;;;;;;;;;;;;;;;4996930;28;20059;-76
2021/06/22 11:36:13;;;;;;;;;;;;;;;;;;4980124;28;19917;-76
2021/06/22 11:38:38;;;;;;;;;;;;;;;;;;5002839;28;19917;-76
2021/06/22 11:41:09;;;;;;;;;;;;;;;;;;4995907;28;19917;-76
2021/06/22 11:43:34;;;;;;;;;;;;;;;;;;4996731;28;19974;-76
2021/06/22 11:46:19;;;;;;;;;;;;;;;;;;5014074;28;20004;-77
2021/06/22 11:48:54;;;;;;;;;;;;;;;;;;5014087;28;20340;-77
2021/06/22 11:51:39;;;;;;;;;;;;;;;;;;4980246;28;19914;-76
2021/06/22 11:54:04;;;;;;;;;;;;;;;;;;4996202;28;19921;-76
2021/06/22 11:56:30;;;;;;;;;;;;;;;;;;4996112;28;19917;-76
2021/06/22 11:58:55;;;;;;;;;;;;;;;;;;4996246;28;19924;-76
2021/06/22 12:01:20;;;;;;;;;;;;;;;;;;4996243;28;19917;-76
2021/06/22 12:03:45;;;;;;;;;;;;;;;;;;5013692;28;19943;-76
2021/06/22 12:06:10;;;;;;;;;;;;;;;;;;4995800;28;20361;-76
2021/06/22 12:08:36;;;;;;;;;;;;;;;;;;4995933;28;19968;-76
2021/06/22 12:11:01;;;;;;;;;;;;;;;;;;5013618;28;19956;-77
2021/06/22 12:13:30;;;;;;;;;;;;;;;;;;5013659;28;20456;-76
2021/06/22 12:15:55;;;;;;;;;;;;;;;;;;4996050;28;19921;-76
2021/06/22 12:18:24;;;;;;;;;;;;;;;;;;4996066;28;19918;-76
2021/06/22 12:20:51;;;;;;;;;;;;;;;;;;4979884;28;19980;-76
2021/06/22 12:23:16;;;;;;;;;;;;;;;;;;4996053;28;19921;-76
2021/06/22 12:25:42;;;;;;;;;;;;;;;;;;4995727;28;19929;-76
2021/06/22 12:28:08;;;;;;;;;;;;;;;;;;4995862;28;19945;-76
2021/06/22 12:30:43;;;;;;;;;;;;;;;;;;5013208;28;19917;-76
2021/06/22 12:33:08;;;;;;;;;;;;;;;;;;4979941;28;20363;-76
2021/06/22 12:35:33;;;;;;;;;;;;;;;;;;4995872;28;19956;-76
2021/06/22 12:38:05;;;;;;;;;;;;;;;;;;4995788;28;19917;-77
2021/06/22 12:40:30;;;;;;;;;;;;;;;;;;4995805;28;19917;-76
2021/06/22 12:42:55;;;;;;;;;;;;;;;;;;4996045;28;19918;-76
2021/06/22 12:45:21;;;;;;;;;;;;;;;;;;5013194;28;19921;-76
2021/06/22 12:47:52;;;;;;;;;;;;;;;;;;4995778;28;20365;-76
2021/06/22 12:50:18;;;;;;;;;;;;;;;;;;4979249;28;19918;-76
2021/06/22 12:52:43;;;;;;;;;;;;;;;;;;4995820;28;20016;-76
2021/06/22 12:55:08;;;;;;;;;;;;;;;;;;4978512;28;20008;-76
2021/06/22 12:57:33;;;;;;;;;;;;;;;;;;4992183;28;20008;-76
2021/06/22 12:59:59;;;;;;;;;;;;;;;;;;4993622;28;19924;-76
2021/06/22 13:02:24;;;;;;;;;;;;;;;;;;4992512;28;19917;-77
2021/06/22 13:04:50;;;;;;;;;;;;;;;;;;4997985;28;19944;-76
2021/06/22 13:07:19;;;;;;;;;;;;;;;;;;5013254;28;19914;-76
2021/06/22 13:09:45;;;;;;;;;;;;;;;;;;4983353;28;19924;-76
2021/06/22 13:12:14;;;;;;;;;;;;;;;;;;5012787;28;20000;-77
2021/06/22 13:14:42;;;;;;;;;;;;;;;;;;4995828;28;20280;-76
2021/06/22 13:17:08;;;;;;;;;;;;;;;;;;4979743;28;20332;-76
2021/06/22 13:19:43;;;;;;;;;;;;;;;;;;4999260;28;19999;-76
2021/06/22 13:22:08;;;;;;;;;;;;;;;;;;4998850;28;20311;-76
2021/06/22 13:24:37;;;;;;;;;;;;;;;;;;4983034;28;19925;-76
2021/06/22 13:27:03;;;;;;;;;;;;;;;;;;4998877;28;19921;-76
2021/06/22 13:29:46;;;;;;;;;;;;;;;;;;4999077;28;19920;-76
2021/06/22 13:32:11;;;;;;;;;;;;;;;;;;5016601;28;19924;-76
2021/06/22 13:34:36;;;;;;;;;;;;;;;;;;5016354;28;20008;-76
2021/06/22 13:37:04;;;;;;;;;;;;;;;;;;4982916;28;19917;-77
2021/06/22 13:39:30;;;;;;;;;;;;;;;;;;4999459;28;19913;-77
2021/06/22 13:41:58;;;;;;;;;;;;;;;;;;4999352;28;19920;-76
2021/06/22 13:44:43;;;;;;;;;;;;;;;;;;4982920;28;19917;-76
2021/06/22 13:47:09;;;;;;;;;;;;;;;;;;4998812;28;19919;-76
2021/06/22 13:49:44;;;;;;;;;;;;;;;;;;5016730;28;19914;-76
2021/06/22 13:52:09;;;;;;;;;;;;;;;;;;4998149;28;19972;-76
2021/06/22 13:54:35;;;;;;;;;;;;;;;;;;4998736;28;19913;-77
2021/06/22 13:57:00;;;;;;;;;;;;;;;;;;4998574;28;19925;-77
2021/06/22 13:59:26;;;;;;;;;;;;;;;;;;4982052;28;19922;-76
2021/06/22 14:01:51;;;;;;;;;;;;;;;;;;4998350;28;20424;-76
2021/06/22 14:04:16;;;;;;;;;;;;;;;;;;4992755;28;19917;-77
2021/06/22 14:06:41;;;;;;;;;;;;;;;;;;5005139;28;19920;-76
2021/06/22 14:09:07;;;;;;;;;;;;;;;;;;5015917;28;19921;-76
2021/06/22 14:11:32;;;;;;;;;;;;;;;;;;4998556;28;19918;-77
2021/06/22 14:13:58;;;;;;;;;;;;;;;;;;4981952;28;20261;-77
2021/06/22 14:16:25;;;;;;;;;;;;;;;;;;4997669;28;19924;-76
2021/06/22 14:18:50;;;;;;;;;;;;;;;;;;4998211;28;20296;-77
2021/06/22 14:21:15;;;;;;;;;;;;;;;;;;5015503;28;20000;-76
2021/06/22 14:23:41;;;;;;;;;;;;;;;;;;4997890;28;19936;-77
2021/06/22 14:26:06;;;;;;;;;;;;;;;;;;5015531;28;19983;-76
2021/06/22 14:28:32;;;;;;;;;;;;;;;;;;5015339;28;20016;-77
2021/06/22 14:30:58;;;;;;;;;;;;;;;;;;5015325;28;19968;-77
2021/06/22 14:33:23;;;;;;;;;;;;;;;;;;5014126;28;19917;-76
2021/06/22 14:35:48;;;;;;;;;;;;;;;;;;4997984;28;19952;-76
2021/06/22 14:38:14;;;;;;;;;;;;;;;;;;4997964;28;19964;-77
2021/06/22 14:40:39;;;;;;;;;;;;;;;;;;5015441;28;19996;-76
2021/06/22 14:43:04;;;;;;;;;;;;;;;;;;4997882;28;19920;-76
2021/06/22 14:45:30;;;;;;;;;;;;;;;;;;5015423;28;19922;-77
2021/06/22 14:47:59;;;;;;;;;;;;;;;;;;4997265;28;19921;-76
2021/06/22 14:50:25;;;;;;;;;;;;;;;;;;4997794;28;19917;-76
2021/06/22 14:52:50;;;;;;;;;;;;;;;;;;4997110;28;19917;-76
2021/06/22 14:55:35;;;;;;;;;;;;;;;;;;5014765;28;20516;-76
2021/06/22 14:58:04;;;;;;;;;;;;;;;;;;5000204;28;19917;-76
2021/06/22 15:00:32;;;;;;;;;;;;;;;;;;4997347;28;20384;-76
2021/06/22 15:02:58;;;;;;;;;;;;;;;;;;5014828;28;19963;-76
2021/06/22 15:05:23;;;;;;;;;;;;;;;;;;4997194;28;20372;-76
2021/06/22 15:07:49;;;;;;;;;;;;;;;;;;4997182;28;19914;-76
2021/06/22 15:10:14;;;;;;;;;;;;;;;;;;4997509;28;20284;-75
2021/06/22 15:12:40;;;;;;;;;;;;;;;;;;4997662;28;19917;-75
2021/06/22 15:15:06;;;;;;;;;;;;;;;;;;5014714;28;19913;-77
2021/06/22 15:17:31;;;;;;;;;;;;;;;;;;4997401;28;20384;-76
2021/06/22 15:19:56;;;;;;;;;;;;;;;;;;4996780;28;19917;-76
2021/06/22 15:22:21;;;;;;;;;;;;;;;;;;4996657;28;20323;-76
2021/06/22 15:24:47;;;;;;;;;;;;;;;;;;4996708;28;19922;-76
2021/06/22 15:29:40;;;;;;;;;;;;;;;;;;5030851;28;19929;-75
2021/06/22 15:32:06;;;;;;;;;;;;;;;;;;5028522;28;20458;-76
2021/06/22 15:34:33;;;;;;;;;;;;;;;;;;5013033;28;19924;-76
2021/06/22 15:36:58;;;;;;;;;;;;;;;;;;5020361;28;19924;-76
2021/06/22 15:39:23;;;;;;;;;;;;;;;;;;5029876;28;20276;-76
2021/06/22 15:41:48;;;;;;;;;;;;;;;;;;5029758;28;20240;-75
2021/06/22 15:44:14;;;;;;;;;;;;;;;;;;5012707;28;19932;-76
2021/06/22 15:46:39;;;;;;;;;;;;;;;;;;5029134;28;20019;-77
2021/06/22 15:49:04;;;;;;;;;;;;;;;;;;5029358;28;19940;-76
2021/06/22 15:51:29;;;;;;;;;;;;;;;;;;5032605;28;20422;-78
2021/06/22 15:53:54;;;;;;;;;;;;;;;;;;5031728;28;19925;-77
2021/06/22 15:56:21;;;;;;;;;;;;;;;;;;5029610;28;19917;-77
2021/06/22 15:58:46;;;;;;;;;;;;;;;;;;5030051;28;20431;-77
2021/06/22 16:01:11;;;;;;;;;;;;;;;;;;5029404;28;19920;-77
2021/06/22 16:03:36;;;;;;;;;;;;;;;;;;5030700;28;19913;-77
2021/06/22 16:06:01;;;;;;;;;;;;;;;;;;5012874;28;19924;-76
2021/06/22 16:08:27;;;;;;;;;;;;;;;;;;5012219;28;20427;-77
2021/06/22 16:10:52;;;;;;;;;;;;;;;;;;5010039;28;20466;-77
2021/06/22 16:13:17;;;;;;;;;;;;;;;;;;5020600;28;19917;-77
2021/06/22 16:15:42;;;;;;;;;;;;;;;;;;5032202;28;19924;-77
2021/06/22 16:18:07;;;;;;;;;;;;;;;;;;5016020;28;19917;-78
2021/06/22 16:20:33;;;;;;;;;;;;;;;;;;5017083;28;19913;-77
2021/06/22 16:22:58;;;;;;;;;;;;;;;;;;5015549;28;19949;-77
2021/06/22 16:25:30;;;;;;;;;;;;;;;;;;5015606;28;20067;-77
2021/06/22 16:27:56;;;;;;;;;;;;;;;;;;5016154;28;20006;-77
2021/06/22 16:30:21;;;;;;;;;;;;;;;;;;5032221;28;19921;-77
2021/06/22 16:32:46;;;;;;;;;;;;;;;;;;5016575;28;20244;-77
2021/06/22 16:35:12;;;;;;;;;;;;;;;;;;5015670;28;19913;-77
2021/06/22 16:37:37;;;;;;;;;;;;;;;;;;5032072;28;20279;-77
2021/06/22 16:40:03;;;;;;;;;;;;;;;;;;5015562;28;20280;-77
2021/06/22 16:42:28;;;;;;;;;;;;;;;;;;5015565;28;20040;-77